createdAt,value
2023-03-06T00:00:53.696Z,79.48
2023-03-06T00:03:55.483Z,79.53
2023-03-06T00:06:57.235Z,79.71
2023-03-06T00:09:58.826Z,79.94
2023-03-06T00:13:05.260Z,80.33
2023-03-06T00:16:07.273Z,80.39
2023-03-06T00:19:09.044Z,80.60
2023-03-06T00:22:13.995Z,81.14
2023-03-06T00:25:21.220Z,81.14
2023-03-06T00:28:22.833Z,81.11
2023-03-06T00:31:24.517Z,80.73
2023-03-06T00:34:26.183Z,81.80
2023-03-06T00:37:27.851Z,83.05
2023-03-06T00:40:30.666Z,83.10
2023-03-06T00:43:32.312Z,82.68
2023-03-06T00:46:33.958Z,82.50
2023-03-06T00:49:36.809Z,82.64
2023-03-06T00:52:38.518Z,82.40
2023-03-06T00:55:40.107Z,82.44
2023-03-06T00:58:41.832Z,82.37
2023-03-06T01:01:43.576Z,82.37
2023-03-06T01:04:46.431Z,82.74
2023-03-06T01:07:48.191Z,83.15
2023-03-06T01:10:49.812Z,82.95
2023-03-06T01:13:51.514Z,83.23
2023-03-06T01:16:55.003Z,83.60
2023-03-06T01:19:57.892Z,84.34
2023-03-06T01:22:59.904Z,84.42
2023-03-06T01:26:03.074Z,84.68
2023-03-06T01:29:04.802Z,84.87
2023-03-06T01:32:07.330Z,85.40
2023-03-06T01:35:09.738Z,85.17
2023-03-06T01:38:11.587Z,85.26
2023-03-06T01:41:15.863Z,84.77
2023-03-06T01:44:17.712Z,84.86
2023-03-06T01:47:19.358Z,85.08
2023-03-06T01:50:20.977Z,85.21
2023-03-06T01:53:22.873Z,85.77
2023-03-06T01:56:25.370Z,85.37
2023-03-06T01:59:28.330Z,85.40
2023-03-06T02:02:30.669Z,85.81
2023-03-06T02:05:33.324Z,86.42
2023-03-06T02:08:35.155Z,86.66
2023-03-06T02:11:36.964Z,86.23
2023-03-06T02:14:39.974Z,86.40
2023-03-06T02:17:43.533Z,86.53
2023-03-06T02:20:54.540Z,86.47
2023-03-06T02:24:21.179Z,87.06
2023-03-06T02:27:25.643Z,85.49
2023-03-06T02:30:30.974Z,85.98
2023-03-06T02:33:32.907Z,86.04
2023-03-06T02:36:40.812Z,85.99
2023-03-06T02:39:48.148Z,85.04
2023-03-06T02:42:52.764Z,85.17
2023-03-06T02:45:54.852Z,86.11
2023-03-06T02:48:56.557Z,85.91
2023-03-06T02:51:58.342Z,84.83
2023-03-06T02:54:59.971Z,85.08
2023-03-06T02:58:02.366Z,85.19
2023-03-06T03:01:05.569Z,85.27
2023-03-06T03:04:07.998Z,85.55
2023-03-06T03:07:09.750Z,88.23
2023-03-06T03:10:12.200Z,90.83
2023-03-06T03:13:13.813Z,92.27
2023-03-06T03:16:17.133Z,92.68
2023-03-06T03:19:18.750Z,92.80
2023-03-06T03:22:21.140Z,92.75
2023-03-06T03:25:24.976Z,92.53
2023-03-06T03:28:29.385Z,92.10
2023-03-06T03:31:32.590Z,92.20
2023-03-06T03:34:35.722Z,92.17
2023-03-06T03:37:38.281Z,92.36
2023-03-06T03:40:40.044Z,91.08
2023-03-06T03:43:43.097Z,89.74
2023-03-06T03:46:45.026Z,88.39
2023-03-06T03:49:51.814Z,88.32
2023-03-06T03:52:55.049Z,88.12
2023-03-06T03:55:56.742Z,88.14
2023-03-06T03:58:58.483Z,88.43
2023-03-06T04:02:04.986Z,88.17
2023-03-06T04:05:12.998Z,87.91
2023-03-06T04:08:15.160Z,87.84
2023-03-06T04:11:19.866Z,87.32
2023-03-06T04:14:21.891Z,87.52
2023-03-06T04:17:23.804Z,87.42
2023-03-06T04:20:26.593Z,86.85
2023-03-06T04:23:28.302Z,87.05
2023-03-06T04:26:30.117Z,87.37
2023-03-06T04:29:32.182Z,87.70
2023-03-06T04:32:33.949Z,87.86
2023-03-06T04:35:36.671Z,87.30
2023-03-06T04:38:42.786Z,87.33
2023-03-06T04:41:44.499Z,87.04
2023-03-06T04:44:46.423Z,86.38
2023-03-06T04:47:48.221Z,86.37
2023-03-06T04:50:49.811Z,87.04
2023-03-06T04:53:52.385Z,87.20
2023-03-06T04:56:54.045Z,87.10
2023-03-06T04:59:55.725Z,86.86
2023-03-06T05:03:01.523Z,87.07
2023-03-06T05:06:03.144Z,87.40
2023-03-06T05:09:04.828Z,87.19
2023-03-06T05:12:06.756Z,87.07
2023-03-06T05:15:09.134Z,87.64
2023-03-06T05:18:10.770Z,86.60
2023-03-06T05:21:12.543Z,85.63
2023-03-06T05:24:14.220Z,86.08
2023-03-06T05:27:16.977Z,86.69
2023-03-06T05:30:21.174Z,86.17
2023-03-06T05:33:22.828Z,86.38
2023-03-06T05:36:25.106Z,86.00
2023-03-06T05:39:27.991Z,85.56
2023-03-06T05:42:30.982Z,85.53
2023-03-06T05:45:32.715Z,85.98
2023-03-06T05:48:35.757Z,85.81
2023-03-06T05:51:37.382Z,84.51
2023-03-06T05:54:38.954Z,85.16
2023-03-06T05:57:40.738Z,84.77
2023-03-06T06:00:42.352Z,84.90
2023-03-06T06:03:45.035Z,84.77
2023-03-06T06:06:46.806Z,83.97
2023-03-06T06:09:48.425Z,84.04
2023-03-06T06:12:50.043Z,83.58
2023-03-06T06:15:51.909Z,83.77
2023-03-06T06:18:53.517Z,83.94
2023-03-06T06:21:55.378Z,83.53
2023-03-06T06:24:57.152Z,83.72
2023-03-06T06:27:58.819Z,83.95
2023-03-06T06:31:01.102Z,83.26
2023-03-06T06:34:04.729Z,83.31
2023-03-06T06:37:06.659Z,83.77
2023-03-06T06:40:09.167Z,83.30
2023-03-06T06:43:11.060Z,84.51
2023-03-06T06:46:44.629Z,84.93
2023-03-06T06:49:34.314Z,85.59
2023-03-06T06:52:36.108Z,83.34
2023-03-06T06:55:37.914Z,83.02
2023-03-06T06:58:39.547Z,82.23
2023-03-06T07:01:41.258Z,82.31
2023-03-06T07:05:00.297Z,82.41
2023-03-06T07:08:04.778Z,82.33
2023-03-06T07:11:10.654Z,81.61
2023-03-06T07:14:12.421Z,81.85
2023-03-06T07:17:14.186Z,81.74
2023-03-06T07:20:15.971Z,81.99
2023-03-06T07:23:17.652Z,81.63
2023-03-06T07:26:19.417Z,81.04
2023-03-06T07:29:21.038Z,81.47
2023-03-06T07:32:22.803Z,80.98
2023-03-06T07:35:25.119Z,80.96
2023-03-06T07:38:26.820Z,81.37
2023-03-06T07:41:28.492Z,81.55
2023-03-06T07:44:30.269Z,81.10
2023-03-06T07:47:32.035Z,81.04
2023-03-06T07:50:35.029Z,81.44
2023-03-06T07:53:36.757Z,80.97
2023-03-06T07:56:38.482Z,80.29
2023-03-06T07:59:40.179Z,79.32
2023-03-06T08:02:42.819Z,79.73
2023-03-06T08:05:44.969Z,79.05
2023-03-06T08:08:47.862Z,79.44
2023-03-06T08:11:49.549Z,79.01
2023-03-06T08:14:51.123Z,78.07
2023-03-06T08:17:52.953Z,77.75
2023-03-06T08:21:11.269Z,77.38
2023-03-06T08:24:16.561Z,76.59
2023-03-06T08:27:18.246Z,76.18
2023-03-06T08:30:21.510Z,77.07
2023-03-06T08:33:23.723Z,77.38
2023-03-06T08:36:25.779Z,75.61
2023-03-06T08:39:27.366Z,75.77
2023-03-06T08:42:29.041Z,76.65
2023-03-06T08:45:33.114Z,75.98
2023-03-06T08:48:34.717Z,76.15
2023-03-06T08:51:36.347Z,74.95
2023-03-06T08:54:39.231Z,75.07
2023-03-06T08:57:40.917Z,75.82
2023-03-06T09:00:43.771Z,75.42
2023-03-06T09:03:45.930Z,76.17
2023-03-06T09:06:47.603Z,75.91
2023-03-06T09:09:49.257Z,76.72
2023-03-06T09:12:54.434Z,77.02
2023-03-06T09:15:56.464Z,77.03
2023-03-06T09:18:58.838Z,77.66
2023-03-06T09:22:01.076Z,77.13
2023-03-06T09:25:04.144Z,77.13
2023-03-06T09:28:11.747Z,77.71
2023-03-06T09:31:16.709Z,77.90
2023-03-06T09:34:18.471Z,77.25
2023-03-06T09:37:20.192Z,76.71
2023-03-06T09:40:42.877Z,77.15
2023-03-06T09:43:48.035Z,75.84
2023-03-06T09:47:05.556Z,75.26
2023-03-06T09:50:31.682Z,74.89
2023-03-06T09:54:05.068Z,74.98
2023-03-06T09:57:18.618Z,75.09
2023-03-06T10:00:42.988Z,75.39
2023-03-06T10:03:59.628Z,74.78
2023-03-06T10:07:08.538Z,75.23
2023-03-06T10:10:18.489Z,74.92
2023-03-06T10:13:38.241Z,74.35
2023-03-06T10:16:40.317Z,74.24
2023-03-06T10:19:42.486Z,74.12
2023-03-06T10:23:22.063Z,73.67
2023-03-06T10:26:33.909Z,74.15
2023-03-06T10:29:43.672Z,73.37
2023-03-06T10:32:57.463Z,72.42
2023-03-06T10:35:59.385Z,72.42
2023-03-06T10:39:09.555Z,72.89
2023-03-06T10:42:11.333Z,72.64
2023-03-06T10:45:17.571Z,71.73
2023-03-06T10:48:26.026Z,71.95
2023-03-06T10:51:29.031Z,70.95
2023-03-06T10:54:34.532Z,71.18
2023-03-06T10:57:36.126Z,71.84
2023-03-06T11:00:37.788Z,71.76
2023-03-06T11:03:39.494Z,73.07
2023-03-06T11:06:41.432Z,70.02
2023-03-06T11:09:47.789Z,70.63
2023-03-06T11:13:21.225Z,71.56
2023-03-06T11:16:27.359Z,71.53
2023-03-06T11:19:29.778Z,71.17
2023-03-06T11:22:31.805Z,70.83
2023-03-06T11:25:50.207Z,69.54
2023-03-06T11:29:15.901Z,70.14
2023-03-06T11:32:25.090Z,69.17
2023-03-06T11:35:35.748Z,68.27
2023-03-06T11:38:49.085Z,68.55
2023-03-06T11:41:57.582Z,68.52
2023-03-06T11:45:14.616Z,67.72
2023-03-06T11:48:17.518Z,69.30
2023-03-06T11:51:23.496Z,67.43
2023-03-06T11:54:25.169Z,67.65
2023-03-06T11:57:52.835Z,67.47
2023-03-06T12:01:15.721Z,68.30
2023-03-06T12:04:39.945Z,67.74
2023-03-06T12:07:53.187Z,68.24
2023-03-06T12:11:01.321Z,68.96
2023-03-06T12:14:20.910Z,68.62
2023-03-06T12:17:25.565Z,68.57
2023-03-06T12:20:47.111Z,67.28
2023-03-06T12:24:12.996Z,67.04
2023-03-06T12:27:26.893Z,66.86
2023-03-06T12:31:12.666Z,66.98
2023-03-06T12:34:43.696Z,67.02
2023-03-06T12:37:56.493Z,66.65
2023-03-06T12:41:16.538Z,66.31
2023-03-06T12:44:40.243Z,66.02
2023-03-06T12:47:46.638Z,66.48
2023-03-06T12:50:50.109Z,65.81
2023-03-06T12:53:52.282Z,65.51
2023-03-06T12:56:56.759Z,65.44
2023-03-06T12:59:58.408Z,66.64
2023-03-06T13:03:39.373Z,65.74
2023-03-06T13:06:54.233Z,66.75
2023-03-06T13:10:01.871Z,67.05
2023-03-06T13:13:24.585Z,68.12
2023-03-06T13:16:31.889Z,68.01
2023-03-06T13:19:33.711Z,68.82
2023-03-06T13:22:35.807Z,69.61
2023-03-06T13:25:48.163Z,70.28
2023-03-06T13:28:54.881Z,72.45
2023-03-06T13:31:58.029Z,74.37
2023-03-06T13:34:59.668Z,77.21
2023-03-06T13:38:01.584Z,77.86
2023-03-06T13:41:22.216Z,78.48
2023-03-06T13:44:23.966Z,77.58
2023-03-06T13:48:01.404Z,79.50
2023-03-06T13:51:23.975Z,77.48
2023-03-06T13:54:54.243Z,78.85
2023-03-06T13:58:11.815Z,78.15
2023-03-06T14:01:29.306Z,77.17
2023-03-06T14:04:54.236Z,77.71
2023-03-06T14:08:18.676Z,75.93
2023-03-06T14:11:21.406Z,77.15
2023-03-06T14:14:31.974Z,75.84
2023-03-06T14:17:38.499Z,75.95
2023-03-06T14:20:40.124Z,76.65
2023-03-06T14:23:44.947Z,77.93
2023-03-06T14:26:49.841Z,76.32
2023-03-06T14:30:04.278Z,76.09
2023-03-06T14:33:11.319Z,76.10
2023-03-06T14:36:16.100Z,76.06
2023-03-06T14:39:27.213Z,76.25
2023-03-06T14:42:29.645Z,76.00
2023-03-06T14:45:31.354Z,75.35
2023-03-06T14:48:44.431Z,76.47
2023-03-06T14:51:51.615Z,75.44
2023-03-06T14:54:53.373Z,74.61
2023-03-06T14:57:59.611Z,75.35
2023-03-06T15:01:07.329Z,74.42
2023-03-06T15:04:22.852Z,74.53
2023-03-06T15:07:30.487Z,74.83
2023-03-06T15:10:34.902Z,75.18
2023-03-06T15:13:36.593Z,73.28
2023-03-06T15:16:38.295Z,73.54
2023-03-06T15:19:42.893Z,72.07
2023-03-06T15:22:53.158Z,71.61
2023-03-06T15:25:58.868Z,71.50
2023-03-06T15:29:10.669Z,71.96
2023-03-06T15:32:13.991Z,72.23
2023-03-06T15:35:27.537Z,72.19
2023-03-06T15:38:44.289Z,71.85
2023-03-06T15:41:45.977Z,71.24
2023-03-06T15:44:50.700Z,71.35
2023-03-06T15:47:54.469Z,71.69
2023-03-06T15:50:56.134Z,71.24
2023-03-06T15:54:09.809Z,71.80
2023-03-06T15:57:26.728Z,70.63
2023-03-06T16:00:32.424Z,71.50
2023-03-06T16:03:34.017Z,71.84
2023-03-06T16:06:35.697Z,70.50
2023-03-06T16:09:37.408Z,72.28
2023-03-06T16:12:39.206Z,71.99
2023-03-06T16:15:46.809Z,73.24
2023-03-06T16:18:48.784Z,73.20
2023-03-06T16:21:50.389Z,74.09
2023-03-06T16:24:52.528Z,73.96
2023-03-06T16:27:58.376Z,74.29
2023-03-06T16:30:59.989Z,74.48
2023-03-06T16:34:01.983Z,75.40
2023-03-06T16:37:03.575Z,75.20
2023-03-06T16:40:12.380Z,74.68
2023-03-06T16:43:15.638Z,74.79
2023-03-06T16:46:23.313Z,75.01
2023-03-06T16:49:25.480Z,74.55
2023-03-06T16:52:27.174Z,75.31
2023-03-06T16:55:28.810Z,75.84
2023-03-06T16:58:30.586Z,75.44
2023-03-06T17:01:32.590Z,75.89
2023-03-06T17:04:34.199Z,76.47
2023-03-06T17:07:37.449Z,77.55
2023-03-06T17:10:40.890Z,77.80
2023-03-06T17:13:42.832Z,78.12
2023-03-06T17:16:45.659Z,77.87
2023-03-06T17:19:48.489Z,77.96
2023-03-06T17:22:50.400Z,78.13
2023-03-06T17:26:01.478Z,79.49
2023-03-06T17:29:05.964Z,80.26
2023-03-06T17:32:08.940Z,80.82
2023-03-06T17:35:10.654Z,81.78
2023-03-06T17:38:12.241Z,82.59
2023-03-06T17:41:14.444Z,82.31
2023-03-06T17:44:16.540Z,83.27
2023-03-06T17:47:18.156Z,82.79
2023-03-06T17:50:20.092Z,83.85
2023-03-06T17:53:22.351Z,83.54
2023-03-06T17:56:24.081Z,85.99
2023-03-06T17:59:25.879Z,88.48
2023-03-06T18:02:28.068Z,89.70
2023-03-06T18:05:29.953Z,91.90
2023-03-06T18:08:32.237Z,89.95
2023-03-06T18:11:33.982Z,91.48
2023-03-06T18:14:37.094Z,90.64
2023-03-06T18:17:38.762Z,90.80
2023-03-06T18:20:41.369Z,91.27
2023-03-06T18:23:43.045Z,90.68
2023-03-06T18:26:44.846Z,88.36
2023-03-06T18:29:47.017Z,86.79
2023-03-06T18:32:48.692Z,84.57
2023-03-06T18:35:50.350Z,82.15
2023-03-06T18:38:52.262Z,80.99
2023-03-06T18:41:53.898Z,80.79
2023-03-06T18:44:55.547Z,81.38
2023-03-06T18:47:57.250Z,80.36
2023-03-06T18:51:10.180Z,80.03
2023-03-06T18:54:11.944Z,79.14
2023-03-06T18:57:13.626Z,79.43
2023-03-06T19:00:15.760Z,78.93
2023-03-06T19:03:17.366Z,77.74
2023-03-06T19:06:20.376Z,77.87
2023-03-06T19:09:22.356Z,77.72
2023-03-06T19:12:24.674Z,78.79
2023-03-06T19:15:26.462Z,78.85
2023-03-06T19:18:29.238Z,78.56
2023-03-06T19:21:31.193Z,78.69
2023-03-06T19:24:32.988Z,78.29
2023-03-06T19:27:37.749Z,78.56
2023-03-06T19:30:42.405Z,78.59
2023-03-06T19:33:45.026Z,76.80
2023-03-06T19:36:50.106Z,78.39
2023-03-06T19:39:51.834Z,77.74
2023-03-06T19:42:53.541Z,77.42
2023-03-06T19:45:56.350Z,75.87
2023-03-06T19:49:05.635Z,75.81
2023-03-06T19:52:07.654Z,75.99
2023-03-06T19:55:10.519Z,75.12
2023-03-06T19:58:12.489Z,75.67
2023-03-06T20:01:17.330Z,75.35
2023-03-06T20:04:19.648Z,75.27
2023-03-06T20:07:21.855Z,75.51
2023-03-06T20:10:23.597Z,75.04
2023-03-06T20:16:30.177Z,74.16
2023-03-06T20:19:31.890Z,73.63
2023-03-06T20:22:33.534Z,73.90
2023-03-06T20:25:36.471Z,73.12
2023-03-06T20:28:39.358Z,73.47
2023-03-06T20:31:41.179Z,73.37
2023-03-06T20:34:42.874Z,72.98
2023-03-06T20:37:44.572Z,73.73
2023-03-06T20:40:46.503Z,73.83
2023-03-06T20:43:48.880Z,73.76
2023-03-06T20:46:52.104Z,74.02
2023-03-06T20:49:53.865Z,74.17
2023-03-06T20:52:56.761Z,74.04
2023-03-06T20:55:58.580Z,73.72
2023-03-06T20:59:00.440Z,74.44
2023-03-06T21:02:02.848Z,74.08
2023-03-06T21:05:04.910Z,74.55
2023-03-06T21:08:07.288Z,74.06
2023-03-06T21:11:08.966Z,74.57
2023-03-06T21:14:12.295Z,74.43
2023-03-06T21:17:14.015Z,74.19
2023-03-06T21:20:15.944Z,73.65
2023-03-06T21:23:17.593Z,74.03
2023-03-06T21:26:21.441Z,73.07
2023-03-06T21:29:23.065Z,72.30
2023-03-06T21:32:24.758Z,71.53
2023-03-06T21:35:26.518Z,72.32
2023-03-06T21:38:28.455Z,72.08
2023-03-06T21:41:32.149Z,71.86
2023-03-06T21:44:33.988Z,72.32
2023-03-06T21:47:38.973Z,72.34
2023-03-06T21:50:41.338Z,72.37
2023-03-06T21:53:44.179Z,72.40
2023-03-06T21:56:45.764Z,72.89
2023-03-06T21:59:47.412Z,72.84
2023-03-06T22:02:50.011Z,72.91
2023-03-06T22:05:52.800Z,72.63
2023-03-06T22:08:56.485Z,72.69
2023-03-06T22:11:58.328Z,71.96
2023-03-06T22:15:00.263Z,72.08
2023-03-06T22:18:01.934Z,72.71
2023-03-06T22:21:08.421Z,72.45
2023-03-06T22:24:10.037Z,72.17
2023-03-06T22:27:11.714Z,72.89
2023-03-06T22:30:13.723Z,72.93
2023-03-06T22:33:15.297Z,72.83
2023-03-06T22:36:17.028Z,72.37
2023-03-06T22:39:18.770Z,72.99
2023-03-06T22:42:20.559Z,72.54
2023-03-06T22:45:22.716Z,72.47
2023-03-06T22:48:24.300Z,71.79
2023-03-06T22:51:27.633Z,71.92
2023-03-06T22:54:29.408Z,71.37
2023-03-06T22:57:32.144Z,71.09
2023-03-06T23:00:33.798Z,71.04
2023-03-06T23:03:37.595Z,71.51
2023-03-06T23:06:41.712Z,71.09
2023-03-06T23:09:43.375Z,70.62
2023-03-06T23:13:03.965Z,70.71
2023-03-06T23:16:25.399Z,70.56
2023-03-06T23:19:45.657Z,70.75
2023-03-06T23:23:05.804Z,70.43
2023-03-06T23:26:17.222Z,70.47
2023-03-06T23:29:18.903Z,70.97
2023-03-06T23:32:20.627Z,70.28
2023-03-06T23:35:22.339Z,70.31
2023-03-06T23:38:23.965Z,70.17
2023-03-06T23:41:25.870Z,70.30
2023-03-06T23:44:28.346Z,70.17
2023-03-06T23:47:34.181Z,70.52
2023-03-06T23:50:39.048Z,71.13
2023-03-06T23:53:40.719Z,71.59
2023-03-06T23:56:42.322Z,71.48
2023-03-06T23:59:44.377Z,71.90
